KMGM/MGM METAR and TAF weather

Enter ICAO airport designator
Station Type Date Time Source
KMGM METAR 2019/10/23 06:53 UTC NOAA

KMGM 230653Z AUTO 28004KT 10SM CLR 10/04 A3016 RMK AO2 SLP210 T01000044


Station Type Date Time Source
KMGM Decoded METAR 2019/10/23 06:53 UTC NOAA

MONTGOMERY DANNELLY FIELD, AL, United States (KMGM) 32-18N 86-24W 63M
Oct 23, 2019 - 02:53 AM EDT / 2019.10.23 0653 UTC
Wind: from the W (280 degrees) at 5 MPH (4 KT):0
Visibility: 10 mile(s):0
Sky conditions: clear
Temperature: 50.0 F (10.0 C)
Dew Point: 39.9 F (4.4 C)
Relative Humidity: 68%
Pressure (altimeter): 30.16 in. Hg (1021 hPa)
ob: KMGM 230653Z AUTO 28004KT 10SM CLR 10/04 A3016 RMK AO2 SLP210 T01000044
cycle: 7

Station Type Date Time Source
KMGM TAF 2019/10/23 06:22 UTC NOAA

TAF KMGM 230520Z 2306/2406 VRB03KT P6SM SKC
FM231500 03007KT P6SM SKC
FM240000 00000KT P6SM SKC

Example: see airport list